METAR Data
IDs: Format: Raw Decoded Include TAF

Data at: 1603 UTC 21 Sep 2018

KBTR 211553Z 09007KT 10SM BKN017 31/24 A3005 RMK AO2 SLP173 T03060244
KBTR 211527Z 13006KT 10SM BKN017 30/25 A3005 RMK AO2 T03000250
KBTR 211453Z 11007KT 10SM CLR 29/26 A3006 RMK AO2 SLP177 T02940256 51007
KBTR 211353Z 08004KT 10SM FEW021 27/25 A3005 RMK AO2 SLP175 T02720250
KBTR 211253Z 06005KT 6SM BR CLR 24/23 A3005 RMK AO2 SLP176 T02440233
KBTR 211153Z 6SM BR CLR 23/23 A3004 RMK AO2 SLP170 70015 T02330228 10244 20233 53013
KBTR 211053Z 00000KT 7SM CLR 23/23 A3002 RMK AO2 SLP165 T02330228
KBTR 210953Z 06004KT 8SM CLR 23/23 A3001 RMK AO2 SLP160 T02330228
KBTR 210853Z AUTO 07003KT 6SM BR CLR 23/23 A3000 RMK AO2 SLP157 T02330228 56007
KBTR 210753Z AUTO 07004KT 7SM CLR 23/23 A3000 RMK AO2 SLP157 T02330228
KBTR 210653Z AUTO 00000KT 7SM CLR 24/23 A3001 RMK AO2 SLP160 T02390233
KBTR 210553Z AUTO 00000KT 8SM CLR 24/23 A3002 RMK AO2 SLP164 T02390233 10272 20239 403330222 50002
KBTR 210453Z AUTO 05003KT 8SM CLR 24/23 A3003 RMK AO2 SLP169 T02440233
KBTR 210353Z 00000KT 10SM CLR 26/23 A3003 RMK AO2 SLP168 T02560228
KBTR 210253Z 16005KT 10SM CLR 26/23 A3001 RMK AO2 SLP162 T02610233 53014
KBTR 210153Z 18005KT 10SM FEW095 27/23 A2999 RMK AO2 SLP153 T02670233
KBTR 210053Z 12006KT 10SM FEW090 27/24 A2997 RMK AO2 SLP148 T02670239
KBTR 202353Z 19007KT 10SM FEW047 SCT070 BKN090 27/24 A2997 RMK AO2 RAE48 SLP149 P0015 60015 T02670239 10333 20267 53006
KBTR 202253Z 13009KT 5SM -RA SCT040 BKN049 29/23 A2996 RMK AO2 LTG DSNT S AND SW RAB52 SLP144 P0000 T02940233
KBTR 202153Z 09004KT 10SM SCT100 32/22 A2994 RMK AO2 LTG DSNT S RAB28E48 SLP137 P0000 T03220222
KBTR 202053Z 05004KT 10SM SCT048 BKN060 BKN095 33/23 A2995 RMK AO2 SLP141 T03280228 57020
KBTR 201953Z 00000KT 9SM SCT065 BKN075 OVC110 32/23 A2997 RMK AO2 SLP147 T03170228
KBTR 201853Z 00000KT 10SM SCT033 BKN070 BKN120 32/22 A2999 RMK AO2 SLP155 T03170222
KBTR 201753Z 11005KT 10SM FEW042 FEW049 33/23 A3001 RMK AO2 SLP161 T03280228 10333 20222 58007
KBTR 201653Z VRB06KT 10SM SCT037 32/23 A3003 RMK AO2 SLP167 T03170233
KBTR 201553Z 07005KT 10SM CLR 31/23 A3004 RMK AO2 SLP169 T03110233
KBTR 201453Z VRB04KT 9SM CLR 29/23 A3003 RMK AO2 SLP168 T02940233 53014
KBTR 201353Z 10005KT 7SM CLR 27/23 A3002 RMK AO2 SLP164 T02670233
KBTR 201253Z 00000KT 5SM BR CLR 24/23 A3000 RMK AO2 SLP159 T02390228
KBTR 201153Z 00000KT 3SM BR CLR 23/22 A2999 RMK AO2 SLP155 T02280217 10244 20222 53008 $
KBTR 201053Z 00000KT 4SM BR CLR 23/22 A2998 RMK AO2 SLP150 T02280222 $
KBTR 200953Z AUTO 06003KT 5SM BR CLR 23/22 A2996 RMK AO2 SLP144 T02280222 $
KBTR 200853Z AUTO 00000KT 5SM BR CLR 23/22 A2997 RMK AO2 SLP146 T02280222 55000 $
KBTR 200753Z AUTO 00000KT 5SM BR CLR 23/22 A2997 RMK AO2 SLP146 T02330222 $
KBTR 200653Z AUTO 00000KT 6SM BR CLR 24/23 A2997 RMK AO2 SLP147 T02390228 $
KBTR 200553Z AUTO 00000KT 7SM CLR 24/23 A2997 RMK AO2 SLP146 T02390228 10278 20239 403610239 51005 $
KBTR 200453Z AUTO 05003KT 7SM CLR 24/23 A2997 RMK AO2 SLP145 T02440228 $